sensor_id;sensor_type;location;lat;lon;timestamp;pressure;altitude;pressure_sealevel;temperature;humidity
7335;BME280;3708;42.632;23.378;2023-05-20T00:00:06;94622.94;;;16.70;55.25
7335;BME280;3708;42.632;23.378;2023-05-20T00:02:34;94609.03;;;16.92;54.85
7335;BME280;3708;42.632;23.378;2023-05-20T00:05:00;94606.16;;;17.01;54.65
7335;BME280;3708;42.632;23.378;2023-05-20T00:07:27;94612.88;;;17.17;54.49
7335;BME280;3708;42.632;23.378;2023-05-20T00:09:55;94610.09;;;17.29;54.19
7335;BME280;3708;42.632;23.378;2023-05-20T00:12:22;94612.09;;;17.36;54.06
7335;BME280;3708;42.632;23.378;2023-05-20T00:14:49;94604.91;;;17.36;54.06
7335;BME280;3708;42.632;23.378;2023-05-20T00:17:16;94608.59;;;17.32;54.28
7335;BME280;3708;42.632;23.378;2023-05-20T00:19:43;94615.28;;;16.84;55.08
7335;BME280;3708;42.632;23.378;2023-05-20T00:22:10;94615.03;;;16.20;57.08
7335;BME280;3708;42.632;23.378;2023-05-20T00:24:37;94618.91;;;15.60;58.49
7335;BME280;3708;42.632;23.378;2023-05-20T00:27:05;94627.94;;;15.74;58.91
7335;BME280;3708;42.632;23.378;2023-05-20T00:29:32;94619.41;;;16.12;57.84
7335;BME280;3708;42.632;23.378;2023-05-20T00:31:59;94618.41;;;16.36;57.22
7335;BME280;3708;42.632;23.378;2023-05-20T00:34:26;94613.44;;;16.50;57.00
7335;BME280;3708;42.632;23.378;2023-05-20T00:36:53;94612.13;;;16.59;56.73
7335;BME280;3708;42.632;23.378;2023-05-20T00:39:20;94604.34;;;16.66;56.48
7335;BME280;3708;42.632;23.378;2023-05-20T00:41:47;94607.28;;;16.46;56.05
7335;BME280;3708;42.632;23.378;2023-05-20T00:44:15;94598.88;;;16.40;56.00
7335;BME280;3708;42.632;23.378;2023-05-20T00:46:43;94597.69;;;16.38;55.61
7335;BME280;3708;42.632;23.378;2023-05-20T00:49:10;94588.66;;;16.39;55.88
7335;BME280;3708;42.632;23.378;2023-05-20T00:51:37;94591.13;;;16.32;55.84
7335;BME280;3708;42.632;23.378;2023-05-20T00:54:04;94589.00;;;16.22;56.24
7335;BME280;3708;42.632;23.378;2023-05-20T00:56:31;94573.66;;;15.92;56.61
7335;BME280;3708;42.632;23.378;2023-05-20T00:58:58;94572.03;;;15.25;58.88
7335;BME280;3708;42.632;23.378;2023-05-20T01:01:26;94586.31;;;15.09;59.65
7335;BME280;3708;42.632;23.378;2023-05-20T01:03:53;94576.91;;;15.39;58.78
7335;BME280;3708;42.632;23.378;2023-05-20T01:06:20;94581.81;;;15.25;59.48
7335;BME280;3708;42.632;23.378;2023-05-20T01:08:46;94579.47;;;15.67;58.54
7335;BME280;3708;42.632;23.378;2023-05-20T01:11:20;94582.84;;;15.98;58.05
7335;BME280;3708;42.632;23.378;2023-05-20T01:13:53;94589.72;;;16.19;57.50
7335;BME280;3708;42.632;23.378;2023-05-20T01:16:23;94596.91;;;16.37;57.02
7335;BME280;3708;42.632;23.378;2023-05-20T01:18:54;94601.53;;;16.25;56.66
7335;BME280;3708;42.632;23.378;2023-05-20T01:21:22;94607.38;;;16.15;56.80
7335;BME280;3708;42.632;23.378;2023-05-20T01:23:50;94599.94;;;16.20;56.71
7335;BME280;3708;42.632;23.378;2023-05-20T01:26:17;94602.22;;;16.22;56.66
7335;BME280;3708;42.632;23.378;2023-05-20T01:28:43;94606.84;;;16.25;56.37
7335;BME280;3708;42.632;23.378;2023-05-20T01:31:14;94603.13;;;16.10;56.06
7335;BME280;3708;42.632;23.378;2023-05-20T01:33:43;94607.81;;;16.01;56.15
7335;BME280;3708;42.632;23.378;2023-05-20T01:36:11;94603.50;;;15.77;56.35
7335;BME280;3708;42.632;23.378;2023-05-20T01:38:59;94600.69;;;15.70;56.77
7335;BME280;3708;42.632;23.378;2023-05-20T01:41:28;94589.09;;;15.75;56.64
7335;BME280;3708;42.632;23.378;2023-05-20T01:43:55;94591.56;;;15.83;56.42
7335;BME280;3708;42.632;23.378;2023-05-20T01:46:22;94590.34;;;15.96;56.32
7335;BME280;3708;42.632;23.378;2023-05-20T01:48:49;94587.09;;;16.03;56.17
7335;BME280;3708;42.632;23.378;2023-05-20T01:51:16;94584.00;;;16.17;55.86
7335;BME280;3708;42.632;23.378;2023-05-20T01:53:43;94588.56;;;16.35;55.76
7335;BME280;3708;42.632;23.378;2023-05-20T01:56:11;94591.41;;;16.46;55.45
7335;BME280;3708;42.632;23.378;2023-05-20T01:58:38;94581.03;;;16.53;55.03
7335;BME280;3708;42.632;23.378;2023-05-20T02:01:05;94582.69;;;16.61;54.82
7335;BME280;3708;42.632;23.378;2023-05-20T02:03:32;94577.41;;;16.61;54.63
7335;BME280;3708;42.632;23.378;2023-05-20T02:05:58;94579.97;;;16.57;54.29
7335;BME280;3708;42.632;23.378;2023-05-20T02:08:25;94576.56;;;16.57;54.58
7335;BME280;3708;42.632;23.378;2023-05-20T02:10:52;94582.56;;;16.54;54.50
7335;BME280;3708;42.632;23.378;2023-05-20T02:13:21;94572.78;;;16.39;54.78
7335;BME280;3708;42.632;23.378;2023-05-20T02:15:47;94579.38;;;16.29;55.05
7335;BME280;3708;42.632;23.378;2023-05-20T02:18:14;94581.41;;;16.36;54.97
7335;BME280;3708;42.632;23.378;2023-05-20T02:20:43;94578.72;;;16.17;55.39
7335;BME280;3708;42.632;23.378;2023-05-20T02:23:09;94584.00;;;16.17;55.27
7335;BME280;3708;42.632;23.378;2023-05-20T02:25:36;94579.78;;;15.96;55.37
7335;BME280;3708;42.632;23.378;2023-05-20T02:28:03;94580.41;;;15.74;55.56
7335;BME280;3708;42.632;23.378;2023-05-20T02:30:36;94576.50;;;15.68;55.62
7335;BME280;3708;42.632;23.378;2023-05-20T02:33:03;94573.34;;;15.47;56.22
7335;BME280;3708;42.632;23.378;2023-05-20T02:35:31;94575.13;;;15.43;56.53
7335;BME280;3708;42.632;23.378;2023-05-20T02:37:58;94572.41;;;15.40;56.58
7335;BME280;3708;42.632;23.378;2023-05-20T02:40:24;94570.19;;;15.42;56.31
7335;BME280;3708;42.632;23.378;2023-05-20T02:42:51;94570.59;;;15.28;56.69
7335;BME280;3708;42.632;23.378;2023-05-20T02:45:18;94573.84;;;15.37;56.85
7335;BME280;3708;42.632;23.378;2023-05-20T02:47:46;94571.88;;;15.34;56.96
7335;BME280;3708;42.632;23.378;2023-05-20T02:50:13;94566.94;;;15.33;57.29
7335;BME280;3708;42.632;23.378;2023-05-20T02:52:40;94564.34;;;15.48;57.19
7335;BME280;3708;42.632;23.378;2023-05-20T02:55:08;94573.34;;;15.47;57.23
7335;BME280;3708;42.632;23.378;2023-05-20T02:57:34;94575.22;;;15.62;57.09
7335;BME280;3708;42.632;23.378;2023-05-20T03:00:03;94568.50;;;15.65;56.82
7335;BME280;3708;42.632;23.378;2023-05-20T03:02:31;94565.09;;;15.64;56.98
7335;BME280;3708;42.632;23.378;2023-05-20T03:04:59;94564.59;;;15.59;56.95
7335;BME280;3708;42.632;23.378;2023-05-20T03:07:27;94575.28;;;15.66;57.30
7335;BME280;3708;42.632;23.378;2023-05-20T03:09:53;94576.00;;;15.63;56.93
7335;BME280;3708;42.632;23.378;2023-05-20T03:12:20;94577.44;;;15.60;56.89
7335;BME280;3708;42.632;23.378;2023-05-20T03:14:50;94587.03;;;15.53;56.51
7335;BME280;3708;42.632;23.378;2023-05-20T03:17:19;94584.69;;;15.48;56.89
7335;BME280;3708;42.632;23.378;2023-05-20T03:19:46;94587.81;;;15.53;56.68
7335;BME280;3708;42.632;23.378;2023-05-20T03:22:14;94586.31;;;15.52;56.38
7335;BME280;3708;42.632;23.378;2023-05-20T03:24:41;94581.78;;;15.53;56.44
7335;BME280;3708;42.632;23.378;2023-05-20T03:27:08;94583.63;;;15.68;56.04
7335;BME280;3708;42.632;23.378;2023-05-20T03:29:35;94587.16;;;15.72;56.00
7335;BME280;3708;42.632;23.378;2023-05-20T03:32:02;94576.56;;;15.87;55.73
7335;BME280;3708;42.632;23.378;2023-05-20T03:34:29;94590.59;;;16.07;55.39
7335;BME280;3708;42.632;23.378;2023-05-20T03:36:56;94593.47;;;16.18;54.80
7335;BME280;3708;42.632;23.378;2023-05-20T03:39:26;94591.03;;;16.28;54.36
7335;BME280;3708;42.632;23.378;2023-05-20T03:41:52;94592.66;;;16.33;53.80
7335;BME280;3708;42.632;23.378;2023-05-20T03:44:19;94604.41;;;16.51;53.86
7335;BME280;3708;42.632;23.378;2023-05-20T03:46:46;94604.81;;;16.53;53.83
7335;BME280;3708;42.632;23.378;2023-05-20T03:49:13;94614.63;;;16.52;53.79
7335;BME280;3708;42.632;23.378;2023-05-20T03:51:39;94621.22;;;16.43;53.78
7335;BME280;3708;42.632;23.378;2023-05-20T03:54:06;94617.72;;;16.39;53.77
7335;BME280;3708;42.632;23.378;2023-05-20T03:56:34;94613.56;;;15.72;54.46
7335;BME280;3708;42.632;23.378;2023-05-20T03:59:01;94614.72;;;15.74;54.70
7335;BME280;3708;42.632;23.378;2023-05-20T04:01:28;94619.94;;;15.71;54.53
7335;BME280;3708;42.632;23.378;2023-05-20T04:03:56;94622.09;;;15.65;55.12
7335;BME280;3708;42.632;23.378;2023-05-20T04:06:23;94623.59;;;15.66;55.24
7335;BME280;3708;42.632;23.378;2023-05-20T04:08:50;94623.00;;;15.88;54.75
7335;BME280;3708;42.632;23.378;2023-05-20T04:11:19;94620.59;;;15.99;54.58
7335;BME280;3708;42.632;23.378;2023-05-20T04:13:47;94628.19;;;16.00;54.23
7335;BME280;3708;42.632;23.378;2023-05-20T04:16:14;94620.38;;;15.88;54.37
7335;BME280;3708;42.632;23.378;2023-05-20T04:18:41;94629.44;;;16.07;54.29
7335;BME280;3708;42.632;23.378;2023-05-20T04:21:10;94630.31;;;16.11;54.05
7335;BME280;3708;42.632;23.378;2023-05-20T04:23:37;94627.38;;;16.31;54.26
7335;BME280;3708;42.632;23.378;2023-05-20T04:26:03;94623.69;;;16.36;53.97
7335;BME280;3708;42.632;23.378;2023-05-20T04:28:30;94619.41;;;16.47;53.63
7335;BME280;3708;42.632;23.378;2023-05-20T04:30:59;94615.63;;;16.48;53.76
7335;BME280;3708;42.632;23.378;2023-05-20T04:33:27;94618.63;;;16.62;53.61
7335;BME280;3708;42.632;23.378;2023-05-20T04:35:54;94621.69;;;16.83;53.44
7335;BME280;3708;42.632;23.378;2023-05-20T04:38:23;94616.78;;;17.04;52.85
7335;BME280;3708;42.632;23.378;2023-05-20T04:40:54;94621.31;;;17.23;52.68
7335;BME280;3708;42.632;23.378;2023-05-20T04:43:22;94612.72;;;16.88;52.85
7335;BME280;3708;42.632;23.378;2023-05-20T04:45:50;94624.31;;;17.21;52.89
7335;BME280;3708;42.632;23.378;2023-05-20T04:48:18;94632.09;;;17.52;52.33
7335;BME280;3708;42.632;23.378;2023-05-20T04:50:46;94631.78;;;17.80;51.91
7335;BME280;3708;42.632;23.378;2023-05-20T04:53:14;94631.34;;;18.01;51.46
7335;BME280;3708;42.632;23.378;2023-05-20T04:55:41;94626.50;;;17.80;51.86
7335;BME280;3708;42.632;23.378;2023-05-20T04:58:09;94633.56;;;17.95;51.65
7335;BME280;3708;42.632;23.378;2023-05-20T05:00:39;94632.75;;;18.17;51.41
7335;BME280;3708;42.632;23.378;2023-05-20T05:03:07;94633.53;;;18.44;51.06
7335;BME280;3708;42.632;23.378;2023-05-20T05:05:35;94639.75;;;18.55;50.92
7335;BME280;3708;42.632;23.378;2023-05-20T05:08:03;94634.03;;;18.83;50.69
7335;BME280;3708;42.632;23.378;2023-05-20T05:10:30;94638.69;;;18.89;50.23
7335;BME280;3708;42.632;23.378;2023-05-20T05:12:57;94631.22;;;18.98;50.22
7335;BME280;3708;42.632;23.378;2023-05-20T05:15:24;94639.41;;;18.86;50.12
7335;BME280;3708;42.632;23.378;2023-05-20T05:17:51;94636.50;;;18.95;50.26
7335;BME280;3708;42.632;23.378;2023-05-20T05:20:18;94633.66;;;19.11;50.07
7335;BME280;3708;42.632;23.378;2023-05-20T05:22:47;94631.72;;;19.41;49.54
7335;BME280;3708;42.632;23.378;2023-05-20T05:25:15;94630.19;;;18.47;50.94
7335;BME280;3708;42.632;23.378;2023-05-20T05:27:42;94636.59;;;19.06;50.55
7335;BME280;3708;42.632;23.378;2023-05-20T05:30:10;94625.25;;;19.38;49.42
7335;BME280;3708;42.632;23.378;2023-05-20T05:32:36;94630.41;;;18.39;51.05
7335;BME280;3708;42.632;23.378;2023-05-20T05:35:05;94623.91;;;18.33;51.39
7335;BME280;3708;42.632;23.378;2023-05-20T05:37:32;94617.16;;;18.65;51.02
7335;BME280;3708;42.632;23.378;2023-05-20T05:40:01;94628.47;;;18.91;50.89
7335;BME280;3708;42.632;23.378;2023-05-20T05:42:29;94618.47;;;19.44;49.63
7335;BME280;3708;42.632;23.378;2023-05-20T05:44:56;94617.63;;;19.77;49.02
7335;BME280;3708;42.632;23.378;2023-05-20T05:47:25;94627.00;;;20.11;48.61
7335;BME280;3708;42.632;23.378;2023-05-20T05:49:56;94630.28;;;20.41;47.86
7335;BME280;3708;42.632;23.378;2023-05-20T05:52:23;94625.91;;;20.77;47.45
7335;BME280;3708;42.632;23.378;2023-05-20T05:54:53;94624.50;;;20.97;46.78
7335;BME280;3708;42.632;23.378;2023-05-20T05:57:23;94612.44;;;21.28;46.39
7335;BME280;3708;42.632;23.378;2023-05-20T05:59:50;94614.03;;;21.57;45.97
7335;BME280;3708;42.632;23.378;2023-05-20T06:02:17;94620.88;;;21.65;46.19
7335;BME280;3708;42.632;23.378;2023-05-20T06:04:44;94618.63;;;21.78;46.22
7335;BME280;3708;42.632;23.378;2023-05-20T06:07:10;94609.88;;;22.02;45.30
7335;BME280;3708;42.632;23.378;2023-05-20T06:09:38;94607.19;;;22.27;43.99
7335;BME280;3708;42.632;23.378;2023-05-20T06:12:05;94601.50;;;22.11;42.58
7335;BME280;3708;42.632;23.378;2023-05-20T06:14:33;94610.28;;;22.15;41.69
7335;BME280;3708;42.632;23.378;2023-05-20T06:17:00;94607.56;;;22.39;40.98
7335;BME280;3708;42.632;23.378;2023-05-20T06:19:27;94609.47;;;22.46;40.54
7335;BME280;3708;42.632;23.378;2023-05-20T06:21:55;94603.31;;;22.56;41.08
7335;BME280;3708;42.632;23.378;2023-05-20T06:24:22;94610.97;;;22.54;40.07
7335;BME280;3708;42.632;23.378;2023-05-20T06:26:49;94611.72;;;22.72;40.20
7335;BME280;3708;42.632;23.378;2023-05-20T06:29:16;94604.81;;;22.82;40.17
7335;BME280;3708;42.632;23.378;2023-05-20T06:31:44;94599.38;;;23.06;39.68
7335;BME280;3708;42.632;23.378;2023-05-20T06:34:11;94591.31;;;23.17;39.24
7335;BME280;3708;42.632;23.378;2023-05-20T06:36:39;94589.34;;;23.35;38.54
7335;BME280;3708;42.632;23.378;2023-05-20T06:39:05;94595.31;;;23.53;38.14
7335;BME280;3708;42.632;23.378;2023-05-20T06:41:37;94588.03;;;23.61;38.37
7335;BME280;3708;42.632;23.378;2023-05-20T06:44:04;94589.97;;;23.57;38.14
7335;BME280;3708;42.632;23.378;2023-05-20T06:46:31;94576.47;;;23.71;38.23
7335;BME280;3708;42.632;23.378;2023-05-20T06:49:00;94580.28;;;23.73;37.74
7335;BME280;3708;42.632;23.378;2023-05-20T06:51:27;94582.44;;;23.92;37.90
7335;BME280;3708;42.632;23.378;2023-05-20T06:53:54;94576.59;;;24.08;37.53
7335;BME280;3708;42.632;23.378;2023-05-20T06:56:21;94596.84;;;24.09;38.06
7335;BME280;3708;42.632;23.378;2023-05-20T06:58:47;94590.38;;;24.03;38.31
7335;BME280;3708;42.632;23.378;2023-05-20T07:01:14;94586.59;;;23.42;38.49
7335;BME280;3708;42.632;23.378;2023-05-20T07:03:41;94592.91;;;23.73;38.83
7335;BME280;3708;42.632;23.378;2023-05-20T07:06:10;94599.25;;;23.93;38.12
7335;BME280;3708;42.632;23.378;2023-05-20T07:08:36;94595.69;;;23.59;38.22
7335;BME280;3708;42.632;23.378;2023-05-20T07:11:03;94594.72;;;23.24;38.48
7335;BME280;3708;42.632;23.378;2023-05-20T07:13:30;94588.47;;;23.48;39.16
7335;BME280;3708;42.632;23.378;2023-05-20T07:15:57;94582.09;;;23.87;38.77
7335;BME280;3708;42.632;23.378;2023-05-20T07:18:23;94586.25;;;23.95;37.44
7335;BME280;3708;42.632;23.378;2023-05-20T07:20:51;94587.81;;;24.37;37.64
7335;BME280;3708;42.632;23.378;2023-05-20T07:23:19;94577.81;;;24.41;37.02
7335;BME280;3708;42.632;23.378;2023-05-20T07:25:46;94570.88;;;24.47;36.64
7335;BME280;3708;42.632;23.378;2023-05-20T07:28:14;94573.59;;;24.43;37.90
7335;BME280;3708;42.632;23.378;2023-05-20T07:30:41;94570.88;;;24.47;37.23
7335;BME280;3708;42.632;23.378;2023-05-20T07:33:10;94580.22;;;24.65;36.37
7335;BME280;3708;42.632;23.378;2023-05-20T07:35:37;94570.53;;;24.78;35.44
7335;BME280;3708;42.632;23.378;2023-05-20T07:38:04;94581.13;;;24.89;35.59
7335;BME280;3708;42.632;23.378;2023-05-20T07:40:32;94584.31;;;25.11;35.88
7335;BME280;3708;42.632;23.378;2023-05-20T07:43:01;94586.97;;;24.80;35.80
7335;BME280;3708;42.632;23.378;2023-05-20T07:45:28;94592.50;;;24.63;36.32
7335;BME280;3708;42.632;23.378;2023-05-20T07:47:55;94590.28;;;25.25;35.01
7335;BME280;3708;42.632;23.378;2023-05-20T07:50:22;94581.41;;;25.28;35.82
7335;BME280;3708;42.632;23.378;2023-05-20T07:52:48;94582.72;;;24.86;36.01
7335;BME280;3708;42.632;23.378;2023-05-20T07:55:16;94579.22;;;25.20;35.36
7335;BME280;3708;42.632;23.378;2023-05-20T07:57:44;94583.00;;;24.58;36.20
7335;BME280;3708;42.632;23.378;2023-05-20T08:00:11;94578.25;;;24.73;36.26
7335;BME280;3708;42.632;23.378;2023-05-20T08:02:39;94574.63;;;25.20;35.87
7335;BME280;3708;42.632;23.378;2023-05-20T08:05:06;94577.44;;;25.66;35.01
7335;BME280;3708;42.632;23.378;2023-05-20T08:07:33;94578.94;;;25.41;35.87
7335;BME280;3708;42.632;23.378;2023-05-20T08:10:00;94569.50;;;25.59;34.67
7335;BME280;3708;42.632;23.378;2023-05-20T08:12:27;94568.50;;;25.50;35.75
7335;BME280;3708;42.632;23.378;2023-05-20T08:14:55;94570.69;;;24.64;36.63
7335;BME280;3708;42.632;23.378;2023-05-20T08:17:22;94569.69;;;24.88;36.97
7335;BME280;3708;42.632;23.378;2023-05-20T08:19:49;94579.31;;;25.13;36.26
7335;BME280;3708;42.632;23.378;2023-05-20T08:22:16;94570.66;;;25.32;37.39
7335;BME280;3708;42.632;23.378;2023-05-20T08:24:42;94572.88;;;25.07;36.00
7335;BME280;3708;42.632;23.378;2023-05-20T08:27:09;94574.78;;;25.10;36.32
7335;BME280;3708;42.632;23.378;2023-05-20T08:29:36;94560.09;;;25.18;36.58
7335;BME280;3708;42.632;23.378;2023-05-20T08:32:05;94564.81;;;25.10;36.34
7335;BME280;3708;42.632;23.378;2023-05-20T08:34:32;94562.34;;;25.23;36.06
7335;BME280;3708;42.632;23.378;2023-05-20T08:36:58;94566.38;;;25.08;36.09
7335;BME280;3708;42.632;23.378;2023-05-20T08:39:25;94555.63;;;25.38;35.79
7335;BME280;3708;42.632;23.378;2023-05-20T08:41:52;94555.09;;;25.50;34.55
7335;BME280;3708;42.632;23.378;2023-05-20T08:44:20;94551.00;;;25.42;35.77
7335;BME280;3708;42.632;23.378;2023-05-20T08:46:47;94557.09;;;25.69;35.68
7335;BME280;3708;42.632;23.378;2023-05-20T08:49:15;94550.47;;;25.77;35.25
7335;BME280;3708;42.632;23.378;2023-05-20T08:51:42;94559.91;;;25.85;35.52
7335;BME280;3708;42.632;23.378;2023-05-20T08:54:10;94571.34;;;25.66;35.16
7335;BME280;3708;42.632;23.378;2023-05-20T08:56:39;94562.78;;;25.48;35.33
7335;BME280;3708;42.632;23.378;2023-05-20T08:59:07;94565.25;;;25.62;34.33
7335;BME280;3708;42.632;23.378;2023-05-20T09:01:40;94561.09;;;25.01;35.11
7335;BME280;3708;42.632;23.378;2023-05-20T09:04:07;94543.81;;;25.62;35.29
7335;BME280;3708;42.632;23.378;2023-05-20T09:06:43;94549.78;;;25.96;34.73
7335;BME280;3708;42.632;23.378;2023-05-20T09:09:10;94548.47;;;25.81;33.72
7335;BME280;3708;42.632;23.378;2023-05-20T09:11:38;94547.13;;;26.39;33.47
7335;BME280;3708;42.632;23.378;2023-05-20T09:14:06;94542.50;;;26.20;33.71
7335;BME280;3708;42.632;23.378;2023-05-20T09:16:33;94542.69;;;26.06;33.86
7335;BME280;3708;42.632;23.378;2023-05-20T09:19:00;94535.88;;;26.01;34.02
7335;BME280;3708;42.632;23.378;2023-05-20T09:21:27;94533.63;;;25.73;34.34
7335;BME280;3708;42.632;23.378;2023-05-20T09:23:56;94530.28;;;26.15;34.84
7335;BME280;3708;42.632;23.378;2023-05-20T09:26:27;94529.56;;;26.34;34.37
7335;BME280;3708;42.632;23.378;2023-05-20T09:28:54;94525.19;;;26.83;33.47
7335;BME280;3708;42.632;23.378;2023-05-20T09:31:25;94530.50;;;26.87;33.79
7335;BME280;3708;42.632;23.378;2023-05-20T09:33:54;94527.66;;;26.94;33.49
7335;BME280;3708;42.632;23.378;2023-05-20T09:36:21;94523.78;;;27.31;33.99
7335;BME280;3708;42.632;23.378;2023-05-20T09:38:51;94518.34;;;26.79;34.63
7335;BME280;3708;42.632;23.378;2023-05-20T09:41:22;94518.28;;;27.18;33.03
7335;BME280;3708;42.632;23.378;2023-05-20T09:43:51;94517.53;;;27.53;32.90
7335;BME280;3708;42.632;23.378;2023-05-20T09:46:19;94516.53;;;27.63;32.56
7335;BME280;3708;42.632;23.378;2023-05-20T09:48:46;94514.84;;;27.53;31.88
7335;BME280;3708;42.632;23.378;2023-05-20T09:51:14;94506.19;;;27.10;31.10
7335;BME280;3708;42.632;23.378;2023-05-20T09:53:41;94499.88;;;27.52;32.49
7335;BME280;3708;42.632;23.378;2023-05-20T09:56:09;94502.41;;;27.07;32.89
7335;BME280;3708;42.632;23.378;2023-05-20T09:58:39;94505.88;;;26.88;33.59
7335;BME280;3708;42.632;23.378;2023-05-20T10:01:07;94499.53;;;26.79;33.05
7335;BME280;3708;42.632;23.378;2023-05-20T10:03:34;94492.25;;;26.79;32.05
7335;BME280;3708;42.632;23.378;2023-05-20T10:06:18;94496.56;;;26.93;32.94
7335;BME280;3708;42.632;23.378;2023-05-20T10:09:04;94494.94;;;27.15;31.76
7335;BME280;3708;42.632;23.378;2023-05-20T10:11:43;94498.13;;;27.26;31.78
7335;BME280;3708;42.632;23.378;2023-05-20T10:14:33;94478.78;;;26.99;31.05
7335;BME280;3708;42.632;23.378;2023-05-20T10:17:08;94474.22;;;26.96;31.92
7335;BME280;3708;42.632;23.378;2023-05-20T10:19:36;94481.22;;;26.54;32.27
7335;BME280;3708;42.632;23.378;2023-05-20T10:22:04;94480.53;;;26.07;31.78
7335;BME280;3708;42.632;23.378;2023-05-20T10:24:32;94476.94;;;26.17;31.48
7335;BME280;3708;42.632;23.378;2023-05-20T10:27:02;94479.50;;;26.24;31.69
7335;BME280;3708;42.632;23.378;2023-05-20T10:29:41;94460.50;;;26.55;31.46
7335;BME280;3708;42.632;23.378;2023-05-20T10:32:08;94466.69;;;27.07;31.15
7335;BME280;3708;42.632;23.378;2023-05-20T10:34:44;94473.97;;;26.71;30.87
7335;BME280;3708;42.632;23.378;2023-05-20T10:37:22;94475.94;;;27.06;30.63
7335;BME280;3708;42.632;23.378;2023-05-20T10:39:50;94466.63;;;27.10;29.47
7335;BME280;3708;42.632;23.378;2023-05-20T10:42:27;94444.78;;;26.53;30.19
7335;BME280;3708;42.632;23.378;2023-05-20T10:44:56;94450.41;;;27.14;30.62
7335;BME280;3708;42.632;23.378;2023-05-20T10:47:23;94448.34;;;27.38;31.03
7335;BME280;3708;42.632;23.378;2023-05-20T10:49:50;94446.78;;;27.20;30.04
7335;BME280;3708;42.632;23.378;2023-05-20T10:52:18;94440.03;;;26.80;30.02
7335;BME280;3708;42.632;23.378;2023-05-20T10:54:46;94443.97;;;26.76;30.81
7335;BME280;3708;42.632;23.378;2023-05-20T10:57:13;94458.09;;;26.96;31.52
7335;BME280;3708;42.632;23.378;2023-05-20T10:59:40;94439.31;;;27.12;30.71
7335;BME280;3708;42.632;23.378;2023-05-20T11:02:10;94436.00;;;27.40;29.74
7335;BME280;3708;42.632;23.378;2023-05-20T11:04:38;94435.63;;;27.70;29.08
7335;BME280;3708;42.632;23.378;2023-05-20T11:07:05;94429.38;;;27.89;29.79
7335;BME280;3708;42.632;23.378;2023-05-20T11:09:32;94431.03;;;28.28;29.39
7335;BME280;3708;42.632;23.378;2023-05-20T11:12:01;94433.28;;;28.58;28.74
7335;BME280;3708;42.632;23.378;2023-05-20T11:14:28;94433.88;;;28.37;28.62
7335;BME280;3708;42.632;23.378;2023-05-20T11:16:56;94427.22;;;28.42;28.11
7335;BME280;3708;42.632;23.378;2023-05-20T11:19:25;94435.34;;;28.26;28.57
7335;BME280;3708;42.632;23.378;2023-05-20T11:21:52;94436.69;;;28.05;28.99
7335;BME280;3708;42.632;23.378;2023-05-20T11:24:23;94427.38;;;27.77;29.12
7335;BME280;3708;42.632;23.378;2023-05-20T11:26:52;94423.81;;;27.80;29.74
7335;BME280;3708;42.632;23.378;2023-05-20T11:29:19;94423.66;;;27.71;29.83
7335;BME280;3708;42.632;23.378;2023-05-20T11:31:47;94431.28;;;27.60;30.16
7335;BME280;3708;42.632;23.378;2023-05-20T11:34:15;94424.41;;;27.88;29.78
7335;BME280;3708;42.632;23.378;2023-05-20T11:36:44;94418.09;;;27.94;29.65
7335;BME280;3708;42.632;23.378;2023-05-20T11:39:11;94402.00;;;27.30;30.56
7335;BME280;3708;42.632;23.378;2023-05-20T11:41:41;94405.44;;;27.31;30.52
7335;BME280;3708;42.632;23.378;2023-05-20T11:44:09;94407.72;;;27.16;30.17
7335;BME280;3708;42.632;23.378;2023-05-20T11:46:41;94397.78;;;27.13;30.26
7335;BME280;3708;42.632;23.378;2023-05-20T11:49:08;94411.38;;;26.90;30.72
7335;BME280;3708;42.632;23.378;2023-05-20T11:51:36;94410.31;;;25.89;31.95
7335;BME280;3708;42.632;23.378;2023-05-20T11:54:06;94405.72;;;25.90;32.06
7335;BME280;3708;42.632;23.378;2023-05-20T11:56:34;94402.13;;;25.77;32.23
7335;BME280;3708;42.632;23.378;2023-05-20T11:59:03;94393.66;;;25.78;32.15
7335;BME280;3708;42.632;23.378;2023-05-20T12:01:31;94396.16;;;25.46;32.79
7335;BME280;3708;42.632;23.378;2023-05-20T12:04:03;94399.16;;;25.25;33.47
7335;BME280;3708;42.632;23.378;2023-05-20T12:06:30;94393.47;;;25.46;33.50
7335;BME280;3708;42.632;23.378;2023-05-20T12:08:59;94389.06;;;25.32;33.72
7335;BME280;3708;42.632;23.378;2023-05-20T12:11:29;94384.41;;;25.13;34.11
7335;BME280;3708;42.632;23.378;2023-05-20T12:13:56;94397.34;;;24.95;33.98
7335;BME280;3708;42.632;23.378;2023-05-20T12:16:23;94374.47;;;24.87;33.87
7335;BME280;3708;42.632;23.378;2023-05-20T12:18:50;94392.88;;;24.85;34.52
7335;BME280;3708;42.632;23.378;2023-05-20T12:21:17;94421.13;;;24.59;35.15
7335;BME280;3708;42.632;23.378;2023-05-20T12:23:44;94424.84;;;24.05;35.66
7335;BME280;3708;42.632;23.378;2023-05-20T12:26:10;94436.69;;;23.19;36.64
7335;BME280;3708;42.632;23.378;2023-05-20T12:28:39;94431.38;;;23.15;36.91
7335;BME280;3708;42.632;23.378;2023-05-20T12:31:06;94435.75;;;22.05;39.71
7335;BME280;3708;42.632;23.378;2023-05-20T12:33:32;94445.31;;;21.81;40.96
7335;BME280;3708;42.632;23.378;2023-05-20T12:36:00;94443.09;;;21.31;42.06
7335;BME280;3708;42.632;23.378;2023-05-20T12:38:27;94446.84;;;21.51;42.13
7335;BME280;3708;42.632;23.378;2023-05-20T12:40:53;94447.22;;;21.63;41.57
7335;BME280;3708;42.632;23.378;2023-05-20T12:43:21;94444.59;;;21.42;42.26
7335;BME280;3708;42.632;23.378;2023-05-20T12:45:49;94447.63;;;21.44;42.37
7335;BME280;3708;42.632;23.378;2023-05-20T12:48:17;94439.63;;;21.16;42.66
7335;BME280;3708;42.632;23.378;2023-05-20T12:50:43;94431.22;;;21.63;41.65
7335;BME280;3708;42.632;23.378;2023-05-20T12:53:10;94439.59;;;21.90;41.47
7335;BME280;3708;42.632;23.378;2023-05-20T12:55:38;94432.34;;;22.84;40.58
7335;BME280;3708;42.632;23.378;2023-05-20T12:58:05;94419.66;;;23.91;38.61
7335;BME280;3708;42.632;23.378;2023-05-20T13:00:33;94414.81;;;24.76;36.85
7335;BME280;3708;42.632;23.378;2023-05-20T13:03:02;94414.66;;;25.60;35.73
7335;BME280;3708;42.632;23.378;2023-05-20T13:05:29;94398.63;;;25.99;34.12
7335;BME280;3708;42.632;23.378;2023-05-20T13:07:55;94397.22;;;27.05;32.28
7335;BME280;3708;42.632;23.378;2023-05-20T13:10:22;94394.69;;;27.91;30.88
7335;BME280;3708;42.632;23.378;2023-05-20T13:12:49;94394.13;;;28.54;30.01